sensor_id;sensor_type;location;lat;lon;timestamp;pressure;altitude;pressure_sealevel;temperature;humidity
51603;BME280;37954;51.980;5.850;2024-02-26T00:01:39;99622.63;;;6.79;81.50
51603;BME280;37954;51.980;5.850;2024-02-26T00:05:51;99623.88;;;6.76;81.37
51603;BME280;37954;51.980;5.850;2024-02-26T00:10:03;99618.88;;;6.68;81.30
51603;BME280;37954;51.980;5.850;2024-02-26T00:14:15;99623.16;;;6.69;81.20
51603;BME280;37954;51.980;5.850;2024-02-26T00:18:27;99628.78;;;6.79;81.09
51603;BME280;37954;51.980;5.850;2024-02-26T00:22:39;99598.06;;;6.58;81.33
51603;BME280;37954;51.980;5.850;2024-02-26T00:26:51;99597.59;;;6.61;81.17
51603;BME280;37954;51.980;5.850;2024-02-26T00:31:06;99618.06;;;6.68;81.34
51603;BME280;37954;51.980;5.850;2024-02-26T00:35:18;99616.06;;;6.63;81.53
51603;BME280;37954;51.980;5.850;2024-02-26T00:39:32;99608.97;;;6.57;81.62
51603;BME280;37954;51.980;5.850;2024-02-26T00:43:43;99622.34;;;6.69;81.75
51603;BME280;37954;51.980;5.850;2024-02-26T00:47:55;99609.25;;;6.67;81.79
51603;BME280;37954;51.980;5.850;2024-02-26T00:52:07;99600.06;;;6.63;81.12
51603;BME280;37954;51.980;5.850;2024-02-26T00:56:19;99608.69;;;6.77;81.77
51603;BME280;37954;51.980;5.850;2024-02-26T01:00:30;99600.56;;;6.72;81.21
51603;BME280;37954;51.980;5.850;2024-02-26T01:04:42;99595.59;;;6.75;81.29
51603;BME280;37954;51.980;5.850;2024-02-26T01:08:54;99610.53;;;6.76;81.30
51603;BME280;37954;51.980;5.850;2024-02-26T01:13:06;99608.78;;;6.70;81.41
51603;BME280;37954;51.980;5.850;2024-02-26T01:17:19;99600.06;;;6.63;82.02
51603;BME280;37954;51.980;5.850;2024-02-26T01:21:31;99607.84;;;6.64;82.24
51603;BME280;37954;51.980;5.850;2024-02-26T01:25:42;99592.59;;;6.53;82.68
51603;BME280;37954;51.980;5.850;2024-02-26T01:29:54;99604.91;;;6.54;82.57
51603;BME280;37954;51.980;5.850;2024-02-26T01:34:06;99594.44;;;6.53;83.04
51603;BME280;37954;51.980;5.850;2024-02-26T01:38:18;99600.00;;;6.51;82.96
51603;BME280;37954;51.980;5.850;2024-02-26T01:42:30;99601.94;;;6.44;82.96
51603;BME280;37954;51.980;5.850;2024-02-26T01:46:43;99603.34;;;6.47;83.18
51603;BME280;37954;51.980;5.850;2024-02-26T01:50:55;99610.75;;;6.45;83.22
51603;BME280;37954;51.980;5.850;2024-02-26T01:55:07;99638.97;;;6.52;83.58
51603;BME280;37954;51.980;5.850;2024-02-26T01:59:20;99645.34;;;6.51;83.76
51603;BME280;37954;51.980;5.850;2024-02-26T02:03:32;99653.94;;;6.53;83.40
51603;BME280;37954;51.980;5.850;2024-02-26T02:07:44;99643.72;;;6.50;83.41
51603;BME280;37954;51.980;5.850;2024-02-26T02:11:56;99652.47;;;6.57;83.30
51603;BME280;37954;51.980;5.850;2024-02-26T02:16:08;99651.41;;;6.58;83.26
51603;BME280;37954;51.980;5.850;2024-02-26T02:20:24;99657.13;;;6.62;83.29
51603;BME280;37954;51.980;5.850;2024-02-26T02:24:36;99671.66;;;6.66;83.02
51603;BME280;37954;51.980;5.850;2024-02-26T02:28:48;99685.59;;;6.68;83.02
51603;BME280;37954;51.980;5.850;2024-02-26T02:33:00;99667.13;;;6.67;82.64
51603;BME280;37954;51.980;5.850;2024-02-26T02:37:12;99682.47;;;6.71;82.63
51603;BME280;37954;51.980;5.850;2024-02-26T02:41:24;99675.66;;;6.75;82.55
51603;BME280;37954;51.980;5.850;2024-02-26T02:45:37;99667.56;;;6.63;81.95
51603;BME280;37954;51.980;5.850;2024-02-26T02:49:49;99676.31;;;6.71;82.22
51603;BME280;37954;51.980;5.850;2024-02-26T02:54:01;99684.44;;;6.76;81.92
51603;BME280;37954;51.980;5.850;2024-02-26T02:58:13;99689.44;;;6.72;82.33
51603;BME280;37954;51.980;5.850;2024-02-26T03:02:24;99684.44;;;6.76;82.18
51603;BME280;37954;51.980;5.850;2024-02-26T03:06:36;99667.88;;;6.74;82.17
51603;BME280;37954;51.980;5.850;2024-02-26T03:10:49;99677.50;;;6.75;82.04
51603;BME280;37954;51.980;5.850;2024-02-26T03:15:01;99685.84;;;6.78;81.77
51603;BME280;37954;51.980;5.850;2024-02-26T03:19:15;99684.81;;;6.79;81.10
51603;BME280;37954;51.980;5.850;2024-02-26T03:23:28;99678.06;;;6.77;81.35
51603;BME280;37954;51.980;5.850;2024-02-26T03:27:41;99689.50;;;6.84;81.29
51603;BME280;37954;51.980;5.850;2024-02-26T03:31:52;99691.13;;;6.85;81.06
51603;BME280;37954;51.980;5.850;2024-02-26T03:36:05;99703.66;;;6.84;81.34
51603;BME280;37954;51.980;5.850;2024-02-26T03:40:17;99700.38;;;6.82;81.12
51603;BME280;37954;51.980;5.850;2024-02-26T03:44:30;99708.03;;;6.79;81.47
51603;BME280;37954;51.980;5.850;2024-02-26T03:48:42;99703.38;;;6.74;81.56
51603;BME280;37954;51.980;5.850;2024-02-26T03:52:54;99700.63;;;6.62;82.00
51603;BME280;37954;51.980;5.850;2024-02-26T03:57:06;99681.81;;;6.57;82.46
51603;BME280;37954;51.980;5.850;2024-02-26T04:01:18;99681.88;;;6.51;83.01
51603;BME280;37954;51.980;5.850;2024-02-26T04:05:29;99706.13;;;6.49;83.43
51603;BME280;37954;51.980;5.850;2024-02-26T04:09:41;99689.22;;;6.37;83.31
51603;BME280;37954;51.980;5.850;2024-02-26T04:13:54;99711.22;;;6.51;83.47
51603;BME280;37954;51.980;5.850;2024-02-26T04:18:06;99705.34;;;6.42;83.70
51603;BME280;37954;51.980;5.850;2024-02-26T04:22:18;99713.22;;;6.37;84.08
51603;BME280;37954;51.980;5.850;2024-02-26T04:26:30;99717.53;;;6.38;85.02
51603;BME280;37954;51.980;5.850;2024-02-26T04:30:42;99743.66;;;6.29;85.44
51603;BME280;37954;51.980;5.850;2024-02-26T04:34:54;99719.94;;;6.21;85.13
51603;BME280;37954;51.980;5.850;2024-02-26T04:39:05;99713.84;;;6.14;85.29
51603;BME280;37954;51.980;5.850;2024-02-26T04:43:17;99726.53;;;6.19;85.77
51603;BME280;37954;51.980;5.850;2024-02-26T04:47:30;99707.84;;;6.01;86.25
51603;BME280;37954;51.980;5.850;2024-02-26T04:51:42;99731.41;;;6.04;87.10
51603;BME280;37954;51.980;5.850;2024-02-26T04:55:54;99739.19;;;6.05;87.05
51603;BME280;37954;51.980;5.850;2024-02-26T05:00:06;99760.63;;;6.10;87.90
51603;BME280;37954;51.980;5.850;2024-02-26T05:04:18;99751.91;;;6.03;87.88
51603;BME280;37954;51.980;5.850;2024-02-26T05:08:30;99736.34;;;6.00;88.46
51603;BME280;37954;51.980;5.850;2024-02-26T05:12:42;99743.94;;;5.97;89.08
51603;BME280;37954;51.980;5.850;2024-02-26T05:16:54;99755.59;;;6.02;88.93
51603;BME280;37954;51.980;5.850;2024-02-26T05:21:06;99763.97;;;6.06;89.08
51603;BME280;37954;51.980;5.850;2024-02-26T05:25:17;99754.19;;;6.00;90.13
51603;BME280;37954;51.980;5.850;2024-02-26T05:29:29;99746.06;;;5.88;90.17
51603;BME280;37954;51.980;5.850;2024-02-26T05:33:41;99754.91;;;5.88;90.92
51603;BME280;37954;51.980;5.850;2024-02-26T05:37:53;99767.78;;;5.85;91.98
51603;BME280;37954;51.980;5.850;2024-02-26T05:42:05;99743.97;;;5.65;91.78
51603;BME280;37954;51.980;5.850;2024-02-26T05:46:18;99770.28;;;5.80;92.79
51603;BME280;37954;51.980;5.850;2024-02-26T05:50:29;99758.03;;;5.72;92.66
51603;BME280;37954;51.980;5.850;2024-02-26T05:54:41;99766.03;;;5.72;93.20
51603;BME280;37954;51.980;5.850;2024-02-26T05:58:53;99768.94;;;5.71;93.62
51603;BME280;37954;51.980;5.850;2024-02-26T06:03:05;99765.47;;;5.64;94.03
51603;BME280;37954;51.980;5.850;2024-02-26T06:07:17;99787.34;;;5.72;93.97
51603;BME280;37954;51.980;5.850;2024-02-26T06:11:29;99779.13;;;5.74;94.49
51603;BME280;37954;51.980;5.850;2024-02-26T06:15:41;99789.16;;;5.78;94.09
51603;BME280;37954;51.980;5.850;2024-02-26T06:19:52;99787.94;;;5.74;94.39
51603;BME280;37954;51.980;5.850;2024-02-26T06:24:04;99793.88;;;5.76;94.33
51603;BME280;37954;51.980;5.850;2024-02-26T06:28:16;99808.38;;;5.87;94.12
51603;BME280;37954;51.980;5.850;2024-02-26T06:32:27;99808.63;;;5.79;93.68
51603;BME280;37954;51.980;5.850;2024-02-26T06:36:40;99820.66;;;5.88;94.12
51603;BME280;37954;51.980;5.850;2024-02-26T06:40:53;99798.00;;;5.72;94.11
51603;BME280;37954;51.980;5.850;2024-02-26T06:45:05;99807.38;;;5.81;93.88
51603;BME280;37954;51.980;5.850;2024-02-26T06:49:16;99811.09;;;5.74;94.44
51603;BME280;37954;51.980;5.850;2024-02-26T06:53:28;99826.44;;;5.78;94.12
51603;BME280;37954;51.980;5.850;2024-02-26T06:57:40;99836.47;;;5.83;94.95
51603;BME280;37954;51.980;5.850;2024-02-26T07:01:52;99847.56;;;5.80;95.06
51603;BME280;37954;51.980;5.850;2024-02-26T07:06:04;99851.66;;;5.82;95.01
51603;BME280;37954;51.980;5.850;2024-02-26T07:10:16;99864.97;;;5.82;95.34
51603;BME280;37954;51.980;5.850;2024-02-26T07:14:28;99861.09;;;5.78;95.02
51603;BME280;37954;51.980;5.850;2024-02-26T07:18:42;99866.41;;;5.78;95.85
51603;BME280;37954;51.980;5.850;2024-02-26T07:22:57;99872.16;;;5.75;96.51
51603;BME280;37954;51.980;5.850;2024-02-26T07:27:09;99861.56;;;5.69;96.50
51603;BME280;37954;51.980;5.850;2024-02-26T07:31:20;99874.88;;;5.69;97.19
51603;BME280;37954;51.980;5.850;2024-02-26T07:35:32;99865.47;;;5.66;97.56
51603;BME280;37954;51.980;5.850;2024-02-26T07:39:45;99869.09;;;5.72;97.83
51603;BME280;37954;51.980;5.850;2024-02-26T07:43:56;99876.94;;;5.67;98.48
51603;BME280;37954;51.980;5.850;2024-02-26T07:48:08;99883.31;;;5.66;98.72
51603;BME280;37954;51.980;5.850;2024-02-26T07:52:20;99882.47;;;5.65;98.82
51603;BME280;37954;51.980;5.850;2024-02-26T07:56:32;99888.44;;;5.60;99.48
51603;BME280;37954;51.980;5.850;2024-02-26T08:00:43;99892.31;;;5.65;99.99
51603;BME280;37954;51.980;5.850;2024-02-26T08:04:55;99907.47;;;5.71;100.00
51603;BME280;37954;51.980;5.850;2024-02-26T08:09:07;99905.84;;;5.63;100.00
51603;BME280;37954;51.980;5.850;2024-02-26T08:13:19;99881.88;;;5.63;100.00
51603;BME280;37954;51.980;5.850;2024-02-26T08:17:30;99907.47;;;5.64;100.00
51603;BME280;37954;51.980;5.850;2024-02-26T08:21:44;99903.59;;;5.60;100.00
51603;BME280;37954;51.980;5.850;2024-02-26T08:25:55;99922.03;;;5.62;100.00
51603;BME280;37954;51.980;5.850;2024-02-26T08:30:07;99923.47;;;5.64;100.00
51603;BME280;37954;51.980;5.850;2024-02-26T08:34:19;99941.09;;;5.65;100.00
51603;BME280;37954;51.980;5.850;2024-02-26T08:38:31;99916.16;;;5.53;100.00
51603;BME280;37954;51.980;5.850;2024-02-26T08:42:43;99944.56;;;5.66;100.00
51603;BME280;37954;51.980;5.850;2024-02-26T08:46:54;99956.25;;;5.71;100.00
51603;BME280;37954;51.980;5.850;2024-02-26T08:51:07;99952.53;;;5.72;100.00
51603;BME280;37954;51.980;5.850;2024-02-26T08:55:19;99959.13;;;5.70;100.00
51603;BME280;37954;51.980;5.850;2024-02-26T08:59:30;99961.56;;;5.71;100.00
51603;BME280;37954;51.980;5.850;2024-02-26T09:03:42;99964.22;;;5.71;100.00
51603;BME280;37954;51.980;5.850;2024-02-26T09:07:54;99947.03;;;5.67;100.00
51603;BME280;37954;51.980;5.850;2024-02-26T09:12:06;99972.81;;;5.73;100.00
51603;BME280;37954;51.980;5.850;2024-02-26T09:16:18;99960.31;;;5.74;100.00
51603;BME280;37954;51.980;5.850;2024-02-26T09:20:29;99977.72;;;5.76;100.00
51603;BME280;37954;51.980;5.850;2024-02-26T09:24:42;99979.56;;;5.82;100.00
51603;BME280;37954;51.980;5.850;2024-02-26T09:28:53;99999.03;;;5.83;100.00
51603;BME280;37954;51.980;5.850;2024-02-26T09:33:05;100015.00;;;5.89;100.00
51603;BME280;37954;51.980;5.850;2024-02-26T09:37:19;100002.75;;;5.88;100.00
51603;BME280;37954;51.980;5.850;2024-02-26T09:41:33;100009.47;;;5.98;100.00
51603;BME280;37954;51.980;5.850;2024-02-26T09:45:44;100022.97;;;6.03;100.00
51603;BME280;37954;51.980;5.850;2024-02-26T09:49:56;100005.97;;;5.97;100.00
51603;BME280;37954;51.980;5.850;2024-02-26T09:54:11;100019.69;;;6.01;100.00
51603;BME280;37954;51.980;5.850;2024-02-26T09:58:27;100020.94;;;5.98;100.00
51603;BME280;37954;51.980;5.850;2024-02-26T10:02:47;100029.94;;;6.04;100.00
51603;BME280;37954;51.980;5.850;2024-02-26T10:07:02;100021.53;;;6.00;100.00
51603;BME280;37954;51.980;5.850;2024-02-26T10:54:15;100106.19;;;6.11;100.00
51603;BME280;37954;51.980;5.850;2024-02-26T10:58:28;100135.47;;;6.24;100.00
51603;BME280;37954;51.980;5.850;2024-02-26T11:02:41;100142.66;;;6.24;100.00
51603;BME280;37954;51.980;5.850;2024-02-26T11:06:54;100145.16;;;6.19;100.00
51603;BME280;37954;51.980;5.850;2024-02-26T11:11:08;100153.72;;;6.27;100.00
51603;BME280;37954;51.980;5.850;2024-02-26T11:15:20;100159.28;;;6.26;100.00
51603;BME280;37954;51.980;5.850;2024-02-26T11:19:35;100149.66;;;6.18;100.00
51603;BME280;37954;51.980;5.850;2024-02-26T11:23:49;100170.97;;;6.32;100.00
51603;BME280;37954;51.980;5.850;2024-02-26T11:28:03;100163.81;;;6.19;100.00
51603;BME280;37954;51.980;5.850;2024-02-26T11:32:16;100177.16;;;6.19;100.00
51603;BME280;37954;51.980;5.850;2024-02-26T11:36:28;100177.94;;;6.33;100.00
51603;BME280;37954;51.980;5.850;2024-02-26T11:40:41;100182.66;;;6.31;100.00
51603;BME280;37954;51.980;5.850;2024-02-26T11:44:53;100173.22;;;6.35;100.00
51603;BME280;37954;51.980;5.850;2024-02-26T11:53:45;100181.00;;;6.36;100.00
51603;BME280;37954;51.980;5.850;2024-02-26T12:21:38;100221.00;;;6.36;100.00
51603;BME280;37954;51.980;5.850;2024-02-26T12:26:16;100192.31;;;6.18;100.00
51603;BME280;37954;51.980;5.850;2024-02-26T12:32:05;100234.75;;;6.40;100.00
51603;BME280;37954;51.980;5.850;2024-02-26T12:42:56;100245.00;;;6.49;100.00
51603;BME280;37954;51.980;5.850;2024-02-26T12:47:09;100233.13;;;6.39;100.00
51603;BME280;37954;51.980;5.850;2024-02-26T12:51:22;100244.16;;;6.42;100.00
51603;BME280;37954;51.980;5.850;2024-02-26T12:55:34;100259.72;;;6.65;100.00
51603;BME280;37954;51.980;5.850;2024-02-26T12:59:48;100260.13;;;6.69;100.00
51603;BME280;37954;51.980;5.850;2024-02-26T13:04:02;100255.41;;;6.64;100.00
51603;BME280;37954;51.980;5.850;2024-02-26T13:08:20;100244.34;;;6.60;100.00
51603;BME280;37954;51.980;5.850;2024-02-26T13:12:32;100279.00;;;6.74;100.00
51603;BME280;37954;51.980;5.850;2024-02-26T13:16:44;100277.16;;;6.74;100.00
51603;BME280;37954;51.980;5.850;2024-02-26T13:21:17;100287.19;;;6.85;100.00
51603;BME280;37954;51.980;5.850;2024-02-26T13:25:29;100293.91;;;6.94;100.00
51603;BME280;37954;51.980;5.850;2024-02-26T13:29:41;100294.31;;;6.98;100.00
51603;BME280;37954;51.980;5.850;2024-02-26T13:33:53;100295.75;;;7.07;100.00
51603;BME280;37954;51.980;5.850;2024-02-26T13:38:06;100292.63;;;7.10;100.00
51603;BME280;37954;51.980;5.850;2024-02-26T13:42:18;100321.38;;;7.15;100.00
51603;BME280;37954;51.980;5.850;2024-02-26T13:46:30;100305.97;;;7.10;100.00
51603;BME280;37954;51.980;5.850;2024-02-26T13:50:42;100331.50;;;7.06;100.00
51603;BME280;37954;51.980;5.850;2024-02-26T13:54:58;100344.03;;;7.06;100.00
51603;BME280;37954;51.980;5.850;2024-02-26T13:59:10;100335.59;;;7.02;100.00
51603;BME280;37954;51.980;5.850;2024-02-26T14:03:22;100350.78;;;7.08;100.00
51603;BME280;37954;51.980;5.850;2024-02-26T14:07:34;100352.00;;;7.12;100.00
51603;BME280;37954;51.980;5.850;2024-02-26T14:11:46;100344.03;;;7.06;100.00
51603;BME280;37954;51.980;5.850;2024-02-26T14:15:57;100363.50;;;7.19;99.71
51603;BME280;37954;51.980;5.850;2024-02-26T14:20:09;100365.91;;;7.27;99.86
51603;BME280;37954;51.980;5.850;2024-02-26T14:24:21;100370.88;;;7.24;99.92
51603;BME280;37954;51.980;5.850;2024-02-26T14:28:33;100387.28;;;7.27;99.72
51603;BME280;37954;51.980;5.850;2024-02-26T14:32:47;100386.03;;;7.37;99.77
51603;BME280;37954;51.980;5.850;2024-02-26T14:36:59;100386.22;;;7.42;99.48
51603;BME280;37954;51.980;5.850;2024-02-26T14:41:11;100396.72;;;7.43;99.14
51603;BME280;37954;51.980;5.850;2024-02-26T14:45:22;100405.97;;;7.41;98.64
51603;BME280;37954;51.980;5.850;2024-02-26T14:49:34;100421.59;;;7.44;98.20
51603;BME280;37954;51.980;5.850;2024-02-26T14:53:46;100414.59;;;7.36;98.30
51603;BME280;37954;51.980;5.850;2024-02-26T14:57:58;100419.53;;;7.39;98.34
51603;BME280;37954;51.980;5.850;2024-02-26T15:02:10;100419.34;;;7.34;98.49
51603;BME280;37954;51.980;5.850;2024-02-26T15:06:21;100435.97;;;7.36;98.42
51603;BME280;37954;51.980;5.850;2024-02-26T15:10:33;100439.28;;;7.31;98.46
51603;BME280;37954;51.980;5.850;2024-02-26T15:14:45;100443.00;;;7.17;97.89
51603;BME280;37954;51.980;5.850;2024-02-26T15:18:58;100460.69;;;7.18;98.08
51603;BME280;37954;51.980;5.850;2024-02-26T15:23:10;100457.41;;;7.10;97.54
51603;BME280;37954;51.980;5.850;2024-02-26T15:27:21;100458.63;;;7.01;98.10
51603;BME280;37954;51.980;5.850;2024-02-26T15:31:33;100465.22;;;6.98;97.99
51603;BME280;37954;51.980;5.850;2024-02-26T15:35:45;100467.66;;;6.93;98.56
51603;BME280;37954;51.980;5.850;2024-02-26T15:39:56;100477.13;;;6.89;97.95
51603;BME280;37954;51.980;5.850;2024-02-26T15:44:08;100466.06;;;6.92;97.87
51603;BME280;37954;51.980;5.850;2024-02-26T15:48:20;100495.19;;;6.93;98.04
51603;BME280;37954;51.980;5.850;2024-02-26T15:52:32;100507.53;;;7.01;97.88
51603;BME280;37954;51.980;5.850;2024-02-26T15:56:44;100510.81;;;6.90;98.09
51603;BME280;37954;51.980;5.850;2024-02-26T16:01:03;100530.75;;;7.01;97.97
51603;BME280;37954;51.980;5.850;2024-02-26T16:05:26;100520.25;;;6.86;97.84
51603;BME280;37954;51.980;5.850;2024-02-26T16:09:38;100532.38;;;6.95;97.63
51603;BME280;37954;51.980;5.850;2024-02-26T16:13:55;100534.66;;;6.91;97.46
51603;BME280;37954;51.980;5.850;2024-02-26T16:18:09;100529.50;;;6.90;97.53
51603;BME280;37954;51.980;5.850;2024-02-26T16:22:21;100547.19;;;6.91;96.96
51603;BME280;37954;51.980;5.850;2024-02-26T16:26:33;100548.81;;;6.85;97.15
51603;BME280;37954;51.980;5.850;2024-02-26T16:30:45;100535.63;;;6.77;96.91
51603;BME280;37954;51.980;5.850;2024-02-26T16:34:59;100553.94;;;6.87;96.86
51603;BME280;37954;51.980;5.850;2024-02-26T16:39:10;100540.38;;;6.75;96.48
51603;BME280;37954;51.980;5.850;2024-02-26T16:43:22;100562.94;;;6.79;96.79
51603;BME280;37954;51.980;5.850;2024-02-26T16:47:34;100566.88;;;6.83;96.84
51603;BME280;37954;51.980;5.850;2024-02-26T16:51:47;100567.66;;;6.77;96.03
51603;BME280;37954;51.980;5.850;2024-02-26T16:55:59;100582.28;;;6.75;96.55
51603;BME280;37954;51.980;5.850;2024-02-26T17:00:14;100602.16;;;6.66;96.22
51603;BME280;37954;51.980;5.850;2024-02-26T17:04:27;100609.56;;;6.70;96.42
51603;BME280;37954;51.980;5.850;2024-02-26T17:08:39;100615.91;;;6.69;96.50
51603;BME280;37954;51.980;5.850;2024-02-26T17:12:52;100607.44;;;6.59;96.03
51603;BME280;37954;51.980;5.850;2024-02-26T17:17:04;100603.72;;;6.47;95.77
51603;BME280;37954;51.980;5.850;2024-02-26T17:21:17;100630.25;;;6.55;95.75
51603;BME280;37954;51.980;5.850;2024-02-26T17:25:29;100622.59;;;6.45;95.62
51603;BME280;37954;51.980;5.850;2024-02-26T17:29:40;100624.63;;;6.43;95.66
51603;BME280;37954;51.980;5.850;2024-02-26T17:33:52;100659.94;;;6.39;95.75
51603;BME280;37954;51.980;5.850;2024-02-26T17:38:04;100647.13;;;6.27;96.18
51603;BME280;37954;51.980;5.850;2024-02-26T17:42:16;100649.81;;;6.27;96.53
51603;BME280;37954;51.980;5.850;2024-02-26T17:46:28;100675.22;;;6.23;96.31
51603;BME280;37954;51.980;5.850;2024-02-26T17:50:42;100684.88;;;6.24;96.51
51603;BME280;37954;51.980;5.850;2024-02-26T17:54:54;100698.00;;;6.19;96.84
51603;BME280;37954;51.980;5.850;2024-02-26T17:59:06;100705.28;;;6.11;96.87
51603;BME280;37954;51.980;5.850;2024-02-26T18:03:18;100732.59;;;6.13;97.10
51603;BME280;37954;51.980;5.850;2024-02-26T18:07:29;100715.31;;;6.02;96.76
51603;BME280;37954;51.980;5.850;2024-02-26T18:11:45;100734.44;;;6.12;96.76
51603;BME280;37954;51.980;5.850;2024-02-26T18:15:57;100741.59;;;6.05;97.16
51603;BME280;37954;51.980;5.850;2024-02-26T18:20:09;100760.34;;;6.18;97.39
51603;BME280;37954;51.980;5.850;2024-02-26T18:24:22;100773.88;;;6.17;96.62
51603;BME280;37954;51.980;5.850;2024-02-26T18:28:34;100779.53;;;6.07;96.32
51603;BME280;37954;51.980;5.850;2024-02-26T18:32:45;100781.50;;;5.99;96.44
51603;BME280;37954;51.980;5.850;2024-02-26T18:37:00;100808.66;;;6.09;96.21
51603;BME280;37954;51.980;5.850;2024-02-26T18:41:19;100800.38;;;5.97;96.22
51603;BME280;37954;51.980;5.850;2024-02-26T18:45:31;100822.34;;;5.99;96.41
51603;BME280;37954;51.980;5.850;2024-02-26T18:50:11;100813.56;;;6.05;95.92
51603;BME280;37954;51.980;5.850;2024-02-26T18:54:26;100813.44;;;5.92;96.05
51603;BME280;37954;51.980;5.850;2024-02-26T18:58:38;100837.69;;;5.97;95.96
51603;BME280;37954;51.980;5.850;2024-02-26T19:02:49;100850.38;;;5.95;96.10
51603;BME280;37954;51.980;5.850;2024-02-26T19:07:01;100857.94;;;5.91;95.40
51603;BME280;37954;51.980;5.850;2024-02-26T19:11:13;100871.34;;;5.98;96.09
51603;BME280;37954;51.980;5.850;2024-02-26T19:15:26;100872.47;;;5.89;95.80
51603;BME280;37954;51.980;5.850;2024-02-26T19:19:39;100870.72;;;5.81;95.87
51603;BME280;37954;51.980;5.850;2024-02-26T19:23:50;100883.50;;;5.86;95.78
51603;BME280;37954;51.980;5.850;2024-02-26T19:28:02;100890.84;;;5.84;95.98
51603;BME280;37954;51.980;5.850;2024-02-26T19:32:14;100893.50;;;5.84;95.33
51603;BME280;37954;51.980;5.850;2024-02-26T19:36:26;100893.69;;;5.82;95.72
51603;BME280;37954;51.980;5.850;2024-02-26T19:40:38;100891.41;;;5.79;95.49
51603;BME280;37954;51.980;5.850;2024-02-26T19:44:50;100898.94;;;5.76;95.50
51603;BME280;37954;51.980;5.850;2024-02-26T19:49:04;100913.19;;;5.83;95.45
51603;BME280;37954;51.980;5.850;2024-02-26T19:53:16;100911.44;;;5.75;95.24
51603;BME280;37954;51.980;5.850;2024-02-26T19:57:27;100911.19;;;5.70;95.10
51603;BME280;37954;51.980;5.850;2024-02-26T20:01:40;100910.97;;;5.72;95.29
51603;BME280;37954;51.980;5.850;2024-02-26T20:05:53;100929.47;;;5.73;95.65
51603;BME280;37954;51.980;5.850;2024-02-26T20:10:05;100913.22;;;5.68;94.91
51603;BME280;37954;51.980;5.850;2024-02-26T20:14:17;100923.44;;;5.65;95.47
51603;BME280;37954;51.980;5.850;2024-02-26T20:18:28;100931.22;;;5.66;94.99
51603;BME280;37954;51.980;5.850;2024-02-26T20:22:40;100931.78;;;5.62;94.93
51603;BME280;37954;51.980;5.850;2024-02-26T20:26:52;100947.88;;;5.68;95.00
51603;BME280;37954;51.980;5.850;2024-02-26T20:31:04;100958.16;;;5.56;94.50
51603;BME280;37954;51.980;5.850;2024-02-26T20:35:16;100957.13;;;5.57;94.92
51603;BME280;37954;51.980;5.850;2024-02-26T20:39:28;100972.47;;;5.55;95.16
51603;BME280;37954;51.980;5.850;2024-02-26T20:43:43;100983.34;;;5.54;94.99
51603;BME280;37954;51.980;5.850;2024-02-26T20:47:54;100986.19;;;5.52;94.95
51603;BME280;37954;51.980;5.850;2024-02-26T20:52:06;100994.44;;;5.57;94.96
51603;BME280;37954;51.980;5.850;2024-02-26T20:56:18;101007.59;;;5.59;94.81
51603;BME280;37954;51.980;5.850;2024-02-26T21:00:29;101003.28;;;5.58;94.89
51603;BME280;37954;51.980;5.850;2024-02-26T21:04:41;101013.09;;;5.57;94.80
51603;BME280;37954;51.980;5.850;2024-02-26T21:08:53;101011.06;;;5.59;94.94
51603;BME280;37954;51.980;5.850;2024-02-26T21:13:06;101033.69;;;5.64;94.58
51603;BME280;37954;51.980;5.850;2024-02-26T21:17:18;101018.72;;;5.63;94.57
51603;BME280;37954;51.980;5.850;2024-02-26T21:21:30;101022.75;;;5.58;94.37
51603;BME280;37954;51.980;5.850;2024-02-26T21:25:44;101027.25;;;5.58;94.80
51603;BME280;37954;51.980;5.850;2024-02-26T21:29:56;101054.91;;;5.57;94.06
51603;BME280;37954;51.980;5.850;2024-02-26T21:34:08;101063.84;;;5.64;94.50
51603;BME280;37954;51.980;5.850;2024-02-26T21:38:20;101037.19;;;5.49;94.30
51603;BME280;37954;51.980;5.850;2024-02-26T21:42:39;101076.63;;;5.69;94.29
51603;BME280;37954;51.980;5.850;2024-02-26T21:46:53;101071.91;;;5.56;94.57
51603;BME280;37954;51.980;5.850;2024-02-26T21:51:04;101080.34;;;5.59;94.06
51603;BME280;37954;51.980;5.850;2024-02-26T21:55:17;101073.72;;;5.55;94.01
51603;BME280;37954;51.980;5.850;2024-02-26T21:59:30;101083.19;;;5.58;93.85
51603;BME280;37954;51.980;5.850;2024-02-26T22:03:42;101097.53;;;5.57;93.92
51603;BME280;37954;51.980;5.850;2024-02-26T22:07:54;101108.00;;;5.58;94.02
51603;BME280;37954;51.980;5.850;2024-02-26T22:12:06;101106.19;;;5.59;93.68
51603;BME280;37954;51.980;5.850;2024-02-26T22:16:18;101101.22;;;5.56;94.52
51603;BME280;37954;51.980;5.850;2024-02-26T22:20:29;101100.75;;;5.52;93.91
51603;BME280;37954;51.980;5.850;2024-02-26T22:24:42;101098.81;;;5.46;94.08
51603;BME280;37954;51.980;5.850;2024-02-26T22:28:54;101110.47;;;5.45;93.89
51603;BME280;37954;51.980;5.850;2024-02-26T22:33:06;101123.09;;;5.51;93.84
51603;BME280;37954;51.980;5.850;2024-02-26T22:37:17;101122.78;;;5.46;93.52
51603;BME280;37954;51.980;5.850;2024-02-26T22:41:29;101123.09;;;5.51;93.80
51603;BME280;37954;51.980;5.850;2024-02-26T22:45:41;101133.56;;;5.53;93.63
51603;BME280;37954;51.980;5.850;2024-02-26T22:49:53;101139.66;;;5.39;93.45
51603;BME280;37954;51.980;5.850;2024-02-26T22:54:04;101137.00;;;5.39;93.99
51603;BME280;37954;51.980;5.850;2024-02-26T22:58:17;101138.47;;;5.41;94.12
51603;BME280;37954;51.980;5.850;2024-02-26T23:02:29;101136.72;;;5.34;93.66
51603;BME280;37954;51.980;5.850;2024-02-26T23:06:40;101125.06;;;5.35;94.31
51603;BME280;37954;51.980;5.850;2024-02-26T23:10:52;101142.88;;;5.34;93.83
51603;BME280;37954;51.980;5.850;2024-02-26T23:15:04;101127.59;;;5.28;94.08
51603;BME280;37954;51.980;5.850;2024-02-26T23:19:17;101139.75;;;5.31;94.08
51603;BME280;37954;51.980;5.850;2024-02-26T23:23:29;101149.91;;;5.27;94.20
51603;BME280;37954;51.980;5.850;2024-02-26T23:27:44;101146.91;;;5.30;94.25
51603;BME280;37954;51.980;5.850;2024-02-26T23:31:56;101167.88;;;5.33;93.65
51603;BME280;37954;51.980;5.850;2024-02-26T23:36:08;101175.94;;;5.40;93.91
51603;BME280;37954;51.980;5.850;2024-02-26T23:40:20;101149.78;;;5.20;94.16